createdAt,value
2022-11-17T00:01:50.854Z,2.70
2022-11-17T00:04:19.233Z,2.80
2022-11-17T00:06:47.405Z,2.80
2022-11-17T00:09:17.788Z,2.80
2022-11-17T00:12:06.639Z,2.80
2022-11-17T00:14:41.090Z,2.70
2022-11-17T00:17:14.200Z,2.70
2022-11-17T00:20:01.217Z,2.90
2022-11-17T00:22:32.402Z,2.90
2022-11-17T00:25:00.737Z,2.80
2022-11-17T00:27:28.903Z,2.90
2022-11-17T00:29:57.222Z,3.00
2022-11-17T00:32:43.989Z,3.00
2022-11-17T00:35:12.096Z,2.90
2022-11-17T00:38:00.116Z,2.80
2022-11-17T00:40:28.220Z,3.00
2022-11-17T00:42:56.445Z,2.90
2022-11-17T00:45:24.571Z,2.70
2022-11-17T00:47:52.688Z,2.90
2022-11-17T00:50:20.816Z,3.40
2022-11-17T00:52:48.847Z,2.80
2022-11-17T00:55:17.142Z,2.50
2022-11-17T00:57:45.211Z,2.70
2022-11-17T01:00:13.656Z,2.50
2022-11-17T01:02:41.792Z,2.90
2022-11-17T01:05:09.912Z,2.60
2022-11-17T01:07:38.097Z,2.50
2022-11-17T01:10:07.396Z,2.40
2022-11-17T01:12:35.453Z,2.20
2022-11-17T01:15:03.971Z,2.50
2022-11-17T01:17:32.237Z,2.20
2022-11-17T01:20:00.375Z,2.40
2022-11-17T01:22:28.546Z,2.40
2022-11-17T01:24:56.546Z,2.80
2022-11-17T01:27:25.101Z,2.50
2022-11-17T01:29:53.274Z,2.40
2022-11-17T01:32:21.540Z,3.00
2022-11-17T01:34:49.613Z,2.80
2022-11-17T01:37:20.571Z,3.30
2022-11-17T01:39:49.617Z,2.80
2022-11-17T01:42:21.325Z,2.60
2022-11-17T01:45:01.360Z,2.80
2022-11-17T01:47:33.542Z,2.70
2022-11-17T01:50:10.234Z,3.60
2022-11-17T01:52:40.558Z,2.60
2022-11-17T01:55:10.975Z,2.40
2022-11-17T01:57:45.684Z,2.50
2022-11-17T02:00:14.125Z,2.70
2022-11-17T02:02:43.949Z,3.10
2022-11-17T02:05:18.166Z,2.70
2022-11-17T02:07:48.700Z,3.70
2022-11-17T02:10:17.103Z,3.90
2022-11-17T02:12:45.982Z,3.60
2022-11-17T02:15:14.669Z,2.80
2022-11-17T02:17:44.248Z,2.50
2022-11-17T02:20:23.481Z,2.80
2022-11-17T02:23:12.954Z,2.90
2022-11-17T02:26:25.670Z,2.90
2022-11-17T02:29:08.794Z,3.10
2022-11-17T02:32:03.179Z,2.80
2022-11-17T02:35:09.444Z,3.00
2022-11-17T02:37:51.953Z,3.00
2022-11-17T02:40:27.741Z,2.70
2022-11-17T02:43:19.224Z,2.50
2022-11-17T02:46:11.410Z,2.50
2022-11-17T02:52:02.704Z,2.70
2022-11-17T02:54:32.236Z,2.60
2022-11-17T02:57:00.949Z,2.70
2022-11-17T02:59:43.975Z,2.50
2022-11-17T03:02:30.787Z,3.00
2022-11-17T03:05:01.604Z,2.80
2022-11-17T03:07:53.941Z,2.80
2022-11-17T03:10:40.241Z,2.70
2022-11-17T03:13:21.614Z,3.10
2022-11-17T03:15:55.432Z,2.80
2022-11-17T03:18:35.687Z,2.80
2022-11-17T03:21:13.990Z,2.80
2022-11-17T03:23:47.895Z,2.90
2022-11-17T03:26:23.189Z,3.20
2022-11-17T03:28:53.662Z,2.70
2022-11-17T03:31:22.878Z,2.80
2022-11-17T03:33:52.054Z,2.70
2022-11-17T03:36:31.269Z,2.60
2022-11-17T03:39:08.882Z,3.00
2022-11-17T03:41:42.103Z,2.90
2022-11-17T03:44:10.948Z,3.00
2022-11-17T03:49:40.394Z,3.00
2022-11-17T03:52:08.869Z,3.00
2022-11-17T03:54:37.312Z,3.00
2022-11-17T03:57:41.330Z,2.70
2022-11-17T04:00:13.012Z,2.80
2022-11-17T04:02:42.824Z,2.80
2022-11-17T04:05:12.292Z,3.40
2022-11-17T04:07:46.128Z,2.90
2022-11-17T04:10:16.971Z,3.00
2022-11-17T04:13:04.366Z,3.00
2022-11-17T04:15:50.831Z,3.10
2022-11-17T04:18:19.734Z,3.80
2022-11-17T04:20:56.767Z,3.60
2022-11-17T04:23:25.869Z,2.70
2022-11-17T04:26:15.770Z,2.60
2022-11-17T04:28:46.884Z,2.60
2022-11-17T04:31:20.168Z,2.80
2022-11-17T04:33:52.561Z,2.70
2022-11-17T04:36:26.107Z,2.80
2022-11-17T04:38:56.267Z,3.50
2022-11-17T04:41:50.042Z,3.10
2022-11-17T04:44:18.633Z,2.80
2022-11-17T04:46:47.015Z,2.80
2022-11-17T04:49:17.114Z,2.70
2022-11-17T04:51:45.872Z,2.70
2022-11-17T04:54:16.642Z,2.80
2022-11-17T04:56:45.367Z,2.80
2022-11-17T04:59:13.599Z,2.90
2022-11-17T05:01:42.478Z,3.00
2022-11-17T05:04:13.585Z,2.70
2022-11-17T05:06:43.867Z,2.80
2022-11-17T05:09:15.421Z,2.40
2022-11-17T05:12:03.053Z,2.70
2022-11-17T05:14:31.203Z,3.10
2022-11-17T05:17:09.572Z,3.40
2022-11-17T05:19:41.281Z,3.70
2022-11-17T05:22:28.953Z,3.80
2022-11-17T05:24:57.484Z,3.00
2022-11-17T05:27:25.762Z,3.10
2022-11-17T05:29:54.138Z,2.70
2022-11-17T05:32:22.208Z,3.00
2022-11-17T05:34:50.299Z,3.60
2022-11-17T05:37:18.676Z,3.20
2022-11-17T05:39:46.628Z,3.40
2022-11-17T05:42:14.594Z,3.50
2022-11-17T05:44:42.679Z,3.40
2022-11-17T05:47:10.879Z,4.50
2022-11-17T05:49:38.952Z,5.40
2022-11-17T05:52:06.917Z,5.70
2022-11-17T05:54:35.296Z,5.70
2022-11-17T05:57:17.283Z,4.40
2022-11-17T05:59:50.551Z,4.50
2022-11-17T06:02:24.641Z,4.80
2022-11-17T06:04:52.649Z,4.50
2022-11-17T06:07:21.239Z,4.70
2022-11-17T06:09:51.223Z,5.00
2022-11-17T06:12:19.209Z,3.90
2022-11-17T06:14:47.283Z,4.50
2022-11-17T06:17:24.745Z,4.70
2022-11-17T06:20:01.231Z,4.90
2022-11-17T06:22:30.533Z,4.20
2022-11-17T06:25:00.150Z,4.90
2022-11-17T06:27:30.817Z,4.30
2022-11-17T06:30:01.899Z,4.50
2022-11-17T06:32:30.988Z,4.20
2022-11-17T06:35:00.771Z,4.40
2022-11-17T06:37:28.888Z,4.50
2022-11-17T06:39:56.905Z,4.80
2022-11-17T06:42:44.951Z,4.20
2022-11-17T06:45:13.051Z,6.00
2022-11-17T06:47:41.240Z,5.00
2022-11-17T06:50:10.015Z,4.90
2022-11-17T06:52:39.108Z,5.10
2022-11-17T06:55:08.047Z,5.10
2022-11-17T06:57:36.065Z,4.70
2022-11-17T07:00:06.278Z,5.00
2022-11-17T07:02:34.662Z,4.80
2022-11-17T07:05:02.941Z,4.70
2022-11-17T07:07:30.945Z,4.80
2022-11-17T07:09:58.959Z,5.90
2022-11-17T07:12:27.151Z,5.60
2022-11-17T07:14:55.541Z,4.70
2022-11-17T07:17:23.498Z,6.20
2022-11-17T07:19:51.747Z,5.50
2022-11-17T07:22:19.720Z,5.00
2022-11-17T07:24:47.812Z,4.80
2022-11-17T07:27:15.983Z,4.60
2022-11-17T07:29:44.362Z,4.80
2022-11-17T07:32:14.069Z,4.70
2022-11-17T07:34:42.715Z,5.00
2022-11-17T07:37:10.697Z,4.90
2022-11-17T07:39:38.987Z,4.80
2022-11-17T07:42:07.173Z,4.50
2022-11-17T07:44:35.656Z,5.10
2022-11-17T07:47:03.856Z,4.60
2022-11-17T07:49:32.037Z,4.70
2022-11-17T07:52:00.991Z,4.70
2022-11-17T07:54:29.103Z,4.90
2022-11-17T07:56:57.155Z,5.80
2022-11-17T07:59:25.225Z,5.60
2022-11-17T08:01:53.297Z,5.10
2022-11-17T08:04:21.455Z,5.30
2022-11-17T08:06:49.517Z,6.50
2022-11-17T08:09:17.789Z,7.00
2022-11-17T08:11:45.870Z,7.60
2022-11-17T08:14:13.883Z,5.50
2022-11-17T08:16:42.356Z,5.60
2022-11-17T08:19:14.445Z,5.50
2022-11-17T08:21:42.648Z,4.50
2022-11-17T08:24:12.335Z,5.00
2022-11-17T08:26:40.427Z,5.90
2022-11-17T08:29:08.505Z,5.30
2022-11-17T08:31:36.678Z,6.10
2022-11-17T08:34:04.687Z,5.20
2022-11-17T08:36:32.675Z,5.50
2022-11-17T08:39:00.719Z,5.20
2022-11-17T08:41:29.057Z,5.30
2022-11-17T08:43:57.123Z,5.90
2022-11-17T08:46:26.577Z,5.30
2022-11-17T08:48:57.080Z,5.50
2022-11-17T08:51:25.456Z,5.10
2022-11-17T08:53:53.508Z,5.60
2022-11-17T08:56:21.763Z,5.10
2022-11-17T08:58:50.467Z,5.40
2022-11-17T09:01:18.619Z,5.70
2022-11-17T09:03:48.293Z,6.40
2022-11-17T09:06:17.729Z,5.70
2022-11-17T09:08:47.485Z,5.30
2022-11-17T09:11:16.869Z,6.30
2022-11-17T09:13:47.180Z,5.00
2022-11-17T09:16:16.714Z,5.30
2022-11-17T09:18:44.796Z,5.70
2022-11-17T09:21:15.823Z,5.30
2022-11-17T09:23:44.069Z,6.20
2022-11-17T09:26:14.740Z,6.10
2022-11-17T09:28:44.331Z,5.50
2022-11-17T09:31:17.539Z,5.80
2022-11-17T09:33:46.293Z,5.80
2022-11-17T09:36:16.311Z,6.20
2022-11-17T09:38:45.519Z,6.30
2022-11-17T09:41:16.233Z,6.70
2022-11-17T09:43:51.365Z,6.30
2022-11-17T09:46:29.772Z,7.00
2022-11-17T09:49:14.109Z,5.30
2022-11-17T09:51:47.519Z,5.20
2022-11-17T09:54:29.127Z,5.10
2022-11-17T09:56:58.535Z,5.20
2022-11-17T09:59:29.990Z,5.40
2022-11-17T10:01:58.697Z,5.70
2022-11-17T10:04:30.273Z,4.90
2022-11-17T10:06:59.108Z,4.60
2022-11-17T10:09:30.233Z,6.30
2022-11-17T10:12:19.604Z,5.50
2022-11-17T10:14:51.978Z,5.10
2022-11-17T10:17:20.123Z,4.90
2022-11-17T10:19:48.096Z,5.60
2022-11-17T10:22:34.949Z,5.10
2022-11-17T10:25:03.089Z,5.30
2022-11-17T10:27:35.195Z,5.10
2022-11-17T10:30:24.307Z,4.70
2022-11-17T10:32:55.960Z,4.90
2022-11-17T10:35:25.721Z,5.30
2022-11-17T10:37:59.005Z,4.70
2022-11-17T10:40:47.636Z,8.10
2022-11-17T10:43:17.100Z,5.40
2022-11-17T10:45:57.201Z,5.20
2022-11-17T10:48:33.278Z,5.60
2022-11-17T10:51:04.716Z,5.10
2022-11-17T10:53:42.990Z,5.10
2022-11-17T10:56:21.698Z,5.20
2022-11-17T10:58:58.293Z,5.10
2022-11-17T11:01:35.424Z,5.40
2022-11-17T11:04:06.279Z,5.20
2022-11-17T11:06:35.459Z,5.40
2022-11-17T11:09:16.795Z,5.30
2022-11-17T11:11:46.683Z,6.30
2022-11-17T11:14:33.530Z,6.80
2022-11-17T11:17:11.243Z,6.90
2022-11-17T11:19:42.098Z,6.20
2022-11-17T11:22:16.944Z,6.00
2022-11-17T11:25:03.588Z,5.90
2022-11-17T11:28:05.602Z,5.80
2022-11-17T11:30:41.202Z,6.00
2022-11-17T11:33:23.817Z,5.60
2022-11-17T11:36:11.588Z,5.40
2022-11-17T11:38:48.390Z,6.50
2022-11-17T11:41:25.603Z,6.00
2022-11-17T11:44:02.900Z,5.80
2022-11-17T11:46:36.614Z,5.60
2022-11-17T11:49:33.183Z,6.00
2022-11-17T11:52:04.886Z,6.10
2022-11-17T11:54:53.221Z,5.60
2022-11-17T11:57:28.753Z,5.40
2022-11-17T12:00:04.619Z,6.30
2022-11-17T12:02:55.819Z,6.30
2022-11-17T12:05:32.433Z,6.50
2022-11-17T12:08:10.602Z,6.00
2022-11-17T12:11:45.554Z,5.70
2022-11-17T12:14:18.720Z,5.90
2022-11-17T12:16:48.256Z,5.90
2022-11-17T12:19:50.392Z,6.00
2022-11-17T12:22:57.859Z,6.20
2022-11-17T12:25:31.519Z,5.90
2022-11-17T12:28:39.376Z,6.20
2022-11-17T12:31:12.073Z,6.40
2022-11-17T12:33:52.445Z,8.40
2022-11-17T12:36:29.740Z,8.00
2022-11-17T12:39:37.268Z,8.30
2022-11-17T12:42:07.156Z,7.30
2022-11-17T12:44:37.980Z,6.20
2022-11-17T12:47:28.689Z,6.40
2022-11-17T12:50:18.888Z,6.60
2022-11-17T12:53:06.663Z,6.30
2022-11-17T12:55:40.625Z,6.10
2022-11-17T12:58:49.238Z,6.40
2022-11-17T13:01:49.308Z,6.30
2022-11-17T13:04:49.606Z,5.70
2022-11-17T13:07:26.408Z,6.10
2022-11-17T13:09:57.373Z,5.60
2022-11-17T13:12:30.573Z,7.00
2022-11-17T13:15:03.864Z,7.90
2022-11-17T13:17:39.125Z,8.50
2022-11-17T13:20:28.538Z,6.90
2022-11-17T13:23:27.701Z,5.90
2022-11-17T13:26:17.278Z,6.20
2022-11-17T13:28:45.748Z,5.60
2022-11-17T13:31:21.267Z,5.70
2022-11-17T13:34:06.485Z,5.50
2022-11-17T13:36:35.244Z,6.80
2022-11-17T13:39:03.846Z,6.60
2022-11-17T13:41:39.422Z,6.40
2022-11-17T13:44:08.726Z,6.60
2022-11-17T13:46:36.964Z,6.80
2022-11-17T13:49:37.896Z,7.90
2022-11-17T13:52:31.084Z,8.70
2022-11-17T13:55:02.809Z,7.40
2022-11-17T13:57:31.240Z,7.60
2022-11-17T14:00:01.334Z,7.30
2022-11-17T14:02:30.094Z,7.90
2022-11-17T14:05:18.541Z,9.50
2022-11-17T14:07:47.038Z,9.60
2022-11-17T14:10:21.097Z,9.30
2022-11-17T14:12:51.317Z,9.70
2022-11-17T14:15:28.721Z,7.90
2022-11-17T14:17:59.175Z,6.60
2022-11-17T14:20:33.861Z,8.00
2022-11-17T14:23:04.379Z,8.90
2022-11-17T14:25:36.181Z,9.10
2022-11-17T14:28:04.297Z,10.20
2022-11-17T14:30:32.424Z,9.40
2022-11-17T14:33:07.725Z,8.20
2022-11-17T14:35:39.010Z,7.10
2022-11-17T14:38:10.769Z,6.80
2022-11-17T14:40:39.041Z,6.70
2022-11-17T14:43:07.115Z,7.20
2022-11-17T14:45:37.951Z,8.80
2022-11-17T14:48:06.430Z,7.30
2022-11-17T14:50:34.946Z,7.60
2022-11-17T14:53:03.083Z,8.70
2022-11-17T14:55:31.081Z,9.50
2022-11-17T14:57:59.059Z,9.40
2022-11-17T15:00:27.545Z,8.80
2022-11-17T15:02:55.568Z,7.30
2022-11-17T15:05:23.638Z,7.00
2022-11-17T15:07:51.708Z,9.10
2022-11-17T15:10:19.773Z,13.70
2022-11-17T15:12:47.850Z,10.80
2022-11-17T15:15:15.925Z,13.90
2022-11-17T15:17:44.198Z,13.80
2022-11-17T15:20:12.294Z,13.10
2022-11-17T15:22:40.293Z,15.60
2022-11-17T15:25:08.854Z,13.70
2022-11-17T15:27:36.887Z,20.30
2022-11-17T15:30:05.806Z,11.80
2022-11-17T15:32:33.767Z,21.80
2022-11-17T15:35:01.710Z,20.30
2022-11-17T15:37:29.702Z,26.90
2022-11-17T15:39:57.760Z,24.40
2022-11-17T15:42:25.824Z,18.60
2022-11-17T15:44:53.891Z,21.20
2022-11-17T15:47:21.867Z,22.10
2022-11-17T15:49:49.930Z,19.90
2022-11-17T15:52:30.133Z,19.30
2022-11-17T15:55:06.635Z,17.60
2022-11-17T15:57:34.587Z,15.70
2022-11-17T16:00:02.897Z,16.90
2022-11-17T16:02:32.195Z,22.30
2022-11-17T16:05:00.338Z,21.20
2022-11-17T16:07:28.428Z,22.30
2022-11-17T16:09:56.510Z,24.10
2022-11-17T16:12:24.465Z,23.70
2022-11-17T16:14:52.450Z,24.20
2022-11-17T16:17:20.620Z,21.30
2022-11-17T16:19:48.994Z,23.80
2022-11-17T16:22:17.075Z,23.50
2022-11-17T16:24:45.139Z,20.90
2022-11-17T16:27:13.691Z,15.50
2022-11-17T16:29:41.895Z,34.90
2022-11-17T16:32:09.863Z,38.90
2022-11-17T16:34:41.003Z,38.80
2022-11-17T16:37:09.386Z,25.80
2022-11-17T16:39:37.956Z,18.80
2022-11-17T16:42:06.170Z,25.90
2022-11-17T16:44:34.197Z,20.70
2022-11-17T16:47:02.266Z,26.60
2022-11-17T16:49:32.296Z,20.00
2022-11-17T16:52:00.306Z,30.70
2022-11-17T16:54:28.375Z,36.80
2022-11-17T16:56:56.365Z,33.50
2022-11-17T16:59:24.307Z,32.80
2022-11-17T17:01:52.430Z,37.80
2022-11-17T17:04:20.511Z,21.20
2022-11-17T17:06:48.480Z,25.90
2022-11-17T17:09:17.885Z,28.70
2022-11-17T17:11:47.691Z,27.10
2022-11-17T17:14:16.091Z,29.80
2022-11-17T17:16:44.157Z,26.60
2022-11-17T17:19:14.629Z,21.10
2022-11-17T17:21:43.564Z,21.60
2022-11-17T17:24:11.608Z,28.60
2022-11-17T17:26:40.328Z,26.80
2022-11-17T17:29:08.987Z,28.90
2022-11-17T17:31:39.909Z,28.70
2022-11-17T17:34:09.057Z,31.10
2022-11-17T17:36:38.645Z,29.90
2022-11-17T17:39:07.323Z,31.60
2022-11-17T17:41:40.311Z,29.80
2022-11-17T17:44:13.357Z,31.40
2022-11-17T17:46:43.017Z,24.20
2022-11-17T17:49:12.070Z,29.20
2022-11-17T17:51:43.649Z,26.40
2022-11-17T17:54:20.715Z,30.60
2022-11-17T17:56:48.950Z,30.80
2022-11-17T17:59:17.763Z,30.50
2022-11-17T18:01:47.920Z,31.70
2022-11-17T18:04:16.901Z,34.10
2022-11-17T18:06:48.576Z,33.50
2022-11-17T18:09:20.326Z,35.00
2022-11-17T18:11:50.056Z,32.10
2022-11-17T18:14:26.359Z,31.90
2022-11-17T18:16:54.384Z,29.90
2022-11-17T18:19:25.730Z,14.60
2022-11-17T18:21:56.441Z,16.70
2022-11-17T18:24:24.542Z,15.90
2022-11-17T18:26:52.633Z,13.50
2022-11-17T18:29:20.745Z,11.70
2022-11-17T18:31:49.646Z,8.60
2022-11-17T18:34:23.162Z,7.60
2022-11-17T18:36:53.465Z,8.10
2022-11-17T18:39:22.195Z,9.10
2022-11-17T18:41:50.425Z,8.50
2022-11-17T18:44:19.913Z,8.10
2022-11-17T18:46:48.308Z,8.00
2022-11-17T18:49:16.503Z,7.70
2022-11-17T18:51:44.955Z,7.40
2022-11-17T18:54:13.292Z,7.60
2022-11-17T18:56:42.135Z,7.30
2022-11-17T18:59:13.444Z,7.70
2022-11-17T19:01:43.174Z,8.00
2022-11-17T19:04:15.019Z,7.30
2022-11-17T19:06:43.009Z,8.40
2022-11-17T19:09:11.604Z,5.70
2022-11-17T19:11:39.941Z,6.00
2022-11-17T19:14:07.886Z,5.80
2022-11-17T19:16:44.540Z,5.60
2022-11-17T19:19:13.880Z,6.10
2022-11-17T19:21:42.908Z,5.20
2022-11-17T19:24:11.373Z,6.10
2022-11-17T19:26:40.187Z,5.00
2022-11-17T19:29:16.251Z,5.00
2022-11-17T19:31:46.659Z,5.20
2022-11-17T19:34:15.748Z,5.20
2022-11-17T19:36:44.681Z,5.70
2022-11-17T19:39:14.508Z,6.70
2022-11-17T19:41:45.182Z,8.00
2022-11-17T19:44:13.556Z,7.30
2022-11-17T19:46:42.751Z,7.10
2022-11-17T19:49:11.706Z,6.80
2022-11-17T19:51:41.184Z,7.60
2022-11-17T19:54:10.140Z,7.30
2022-11-17T19:56:38.622Z,6.40
2022-11-17T19:59:09.749Z,6.20
2022-11-17T20:01:42.328Z,6.40
2022-11-17T20:04:10.779Z,6.80
2022-11-17T20:06:39.707Z,5.80
2022-11-17T20:09:13.164Z,5.90
2022-11-17T20:11:41.478Z,6.50
2022-11-17T20:14:09.745Z,6.40
2022-11-17T20:16:39.015Z,6.10
2022-11-17T20:19:14.044Z,6.10
2022-11-17T20:21:42.365Z,7.90
2022-11-17T20:24:10.653Z,7.30
2022-11-17T20:26:41.096Z,5.90
2022-11-17T20:29:09.340Z,5.30
2022-11-17T20:31:37.405Z,8.70
2022-11-17T20:34:06.190Z,7.40
2022-11-17T20:36:35.496Z,12.40
2022-11-17T20:39:06.127Z,10.00
2022-11-17T20:41:34.547Z,7.60
2022-11-17T20:44:03.552Z,7.00
2022-11-17T20:46:31.668Z,5.50
2022-11-17T20:48:59.841Z,6.30
2022-11-17T20:51:28.010Z,7.20
2022-11-17T20:53:56.081Z,7.90
2022-11-17T20:56:24.481Z,11.30
2022-11-17T20:58:52.595Z,10.60
2022-11-17T21:01:24.530Z,12.30
2022-11-17T21:03:53.444Z,10.20
2022-11-17T21:06:24.837Z,11.60
2022-11-17T21:08:53.010Z,13.80
2022-11-17T21:11:42.076Z,10.30
2022-11-17T21:14:12.349Z,7.80
2022-11-17T21:16:42.704Z,7.70
2022-11-17T21:19:10.766Z,7.30
2022-11-17T21:21:38.956Z,9.60
2022-11-17T21:24:07.281Z,10.00
2022-11-17T21:26:35.608Z,9.20
2022-11-17T21:29:06.688Z,8.80
2022-11-17T21:31:35.716Z,8.90
2022-11-17T21:34:06.514Z,10.90
2022-11-17T21:36:36.266Z,10.30
2022-11-17T21:39:04.999Z,9.00
2022-11-17T21:41:38.582Z,9.20
2022-11-17T21:44:06.652Z,7.30
2022-11-17T21:46:36.551Z,6.90
2022-11-17T21:49:04.696Z,6.20
2022-11-17T21:51:35.474Z,6.10
2022-11-17T21:54:06.710Z,5.60
2022-11-17T21:56:36.116Z,5.80
2022-11-17T21:59:07.343Z,5.70
2022-11-17T22:01:35.741Z,6.60
2022-11-17T22:04:04.622Z,5.50
2022-11-17T22:06:33.439Z,5.80
2022-11-17T22:09:01.365Z,5.80
2022-11-17T22:11:37.613Z,6.80
2022-11-17T22:14:18.157Z,6.20
2022-11-17T22:16:48.833Z,5.60
2022-11-17T22:19:17.610Z,4.80
2022-11-17T22:21:48.325Z,5.20
2022-11-17T22:24:16.528Z,5.50
2022-11-17T22:26:45.247Z,4.70
2022-11-17T22:29:17.321Z,4.00
2022-11-17T22:31:47.091Z,4.40
2022-11-17T22:34:15.778Z,4.60
2022-11-17T22:36:43.945Z,4.70
2022-11-17T22:39:12.644Z,4.90
2022-11-17T22:41:40.703Z,4.10
2022-11-17T22:44:15.834Z,4.20
2022-11-17T22:46:44.218Z,4.10
2022-11-17T22:49:13.395Z,4.20
2022-11-17T22:52:00.785Z,4.30
2022-11-17T22:54:29.136Z,4.50
2022-11-17T22:56:58.310Z,4.30
2022-11-17T22:59:28.121Z,4.20
2022-11-17T23:01:56.704Z,4.10
2022-11-17T23:04:24.775Z,4.30
2022-11-17T23:06:52.960Z,4.20
2022-11-17T23:09:21.069Z,3.90
2022-11-17T23:11:49.610Z,4.00
2022-11-17T23:14:17.604Z,4.40
2022-11-17T23:16:45.769Z,4.70
2022-11-17T23:19:14.669Z,4.00
2022-11-17T23:21:43.013Z,4.60
2022-11-17T23:24:13.032Z,4.20
2022-11-17T23:26:42.222Z,4.00
2022-11-17T23:29:10.463Z,4.20
2022-11-17T23:31:38.571Z,4.40
2022-11-17T23:34:10.824Z,4.70
2022-11-17T23:36:39.317Z,4.90
2022-11-17T23:39:07.639Z,4.90
2022-11-17T23:41:35.750Z,4.50
2022-11-17T23:44:04.273Z,5.20
2022-11-17T23:46:32.562Z,4.60
2022-11-17T23:49:00.691Z,4.80
2022-11-17T23:51:30.158Z,4.90
2022-11-17T23:54:00.929Z,4.50
2022-11-17T23:56:33.721Z,4.40
2022-11-17T23:59:01.784Z,4.20
